x

Delaware Bay 26 Nm Southeast Of Cape May, Nj (44009) Wave Buoy

7:50pm - Sun 2nd Aug 2015 All times are EDT. -4 hours from GMT.

  • Sig Wave height 2.3ft
  • Swell Direction
  • Peak Period 11s
  • Average Period 6s
  • Wind
    9mph
  • Sea Temp 80°f
  • Air Temp 79°f
  • Sea Pressure 1012.8mb
  • Delaware Bay 26 Nm Southeast Of Cape May, Nj
  • Delaware Bay 26 Nm Southeast Of Cape May, Nj

More Historic Weather Station data

Upgrade to MSW Pro to gain access to the past 30 days of data for over 8000 Wavebouys and Weather Stations around the globe.

Join Pro

Comparision Forecast

View Surf forecast
   
Sun 08/02 7:50pm 2.5ft 11s 6s 9
mph
1012.8mb 80f 79f
6:50pm 2.5ft 11s 6s 9
mph
1013.3mb 80f 80f
5:50pm 2.5ft 7s 6s 4 7 mph 1013.7mb 81f 79f
4:50pm 2.5ft 8s 6s 2
mph
1013.8mb 81f 80f
3:50pm 2.5ft 7s 6s  -  2 mph 1013.9mb 81f 80f
2:50pm 2.5ft 7s 6s 2 4 mph 1013.9mb 81f 79f
1:50pm 2.5ft 12s 6s 4
mph
1014.3mb 80f 79f
12:50pm 2.5ft 7s 6s 7
mph
1014.5mb 80f 79f
11:50am 2.5ft 7s 6s 9
mph
1014.3mb 79f 79f
10:50am 2.5ft 11s 6s 9 11 mph 1014mb 79f 78f
9:50am 2.5ft 7s 5s 9 11 mph 1013.6mb 79f 78f
8:50am 3ft 7s 5s 7 9 mph 1013.2mb 79f 78f
7:50am 3ft 8s 6s  -  2 mph 1013mb 79f 78f
6:50am 3ft 8s 6s 2 4 mph 1012.8mb 79f 77f
5:50am 3ft 6s 6s 7 9 mph 1012.2mb 79f 77f
4:50am 3ft 7s 6s 7 9 mph 1011.9mb 79f 77f
3:50am 3ft 8s 5s 4 7 mph 1012mb 79f 78f
2:50am 3.5ft 8s 5s 2 4 mph 1011.9mb 79f 79f
1:50am 3ft 8s 5s 4
mph
1012.2mb 79f 79f
12:50am 3.5ft 8s 5s 9 11 mph 1012.3mb 79f 79f
Sat 08/01 11:50pm 3.5ft 8s 5s 29 43 mph 1012.1mb 79f 75f
10:50pm 3.5ft 8s 5s 16 18 mph 1011.4mb 79f 80f
9:50pm 3.5ft 8s 4s 18 20 mph 1011.6mb 79f 80f
8:50pm 4ft 8s 4s 18 22 mph 1011.1mb 80f 80f
7:50pm 4ft 5s 4s 18 20 mph 1010.6mb 80f 80f
6:50pm 4.5ft 5s 4s 20 22 mph 1010.2mb 80f 81f
5:50pm 4ft 4s 4s 22 27 mph 1009.9mb 80f 81f
4:50pm 4ft 5s 4s 20 25 mph 1010mb 80f 81f
3:50pm 3.5ft 8s 4s 22 27 mph 1010.3mb 80f 80f
2:50pm 3.5ft 8s 5s 18 20 mph 1010.7mb 80f 80f
1:50pm 3ft 8s 5s 16 18 mph 1011.4mb 80f 80f
12:50pm 2.5ft 8s 5s 13 16 mph 1012mb 79f 80f
11:50am 2.5ft 8s 5s 13 16 mph 1012.3mb 79f 80f
10:50am 2.5ft 8s 5s 13 16 mph 1011.9mb 79f 80f
9:50am 2.5ft 9s 5s 16 18 mph 1011.7mb 79f 79f
8:50am 2.5ft 8s 5s 13 16 mph 1012.1mb 79f 78f
7:50am 2.5ft 8s 5s 13 16 mph 1011.8mb 79f 79f
6:50am 3ft 7s 5s 13 16 mph 1011.4mb 79f 78f
5:50am 2.5ft 8s 5s 13 18 mph 1011.1mb 79f 79f
4:50am 2.5ft 9s 6s 11 13 mph 1011.2mb 79f 78f
3:50am 2.5ft 9s 5s 11 13 mph 1011.2mb 79f 78f
2:50am 2.5ft 10s 5s 13 16 mph 1011.7mb 79f 79f
1:50am 3ft 11s 5s 13 16 mph 1011.6mb 79f 80f
12:50am 2.5ft 8s 5s 13 16 mph 1012.2mb 79f 80f
Fri 07/31 11:50pm 2.5ft 8s 5s 13 16 mph 1012.4mb 80f 80f
10:50pm 2.5ft 10s 5s 13 16 mph 1012.3mb 80f 80f
9:50pm 2.5ft 6s 6s 13 16 mph 1012.1mb 80f 80f
8:50pm 2.5ft 7s 6s 11 13 mph 1011.5mb 80f 80f
7:50pm 2.5ft 7s 6s 4 7 mph 1010.9mb 80f 82f
6:50pm 2.5ft 8s 6s 4 7 mph 1010.4mb 80f 82f
5:50pm 2.5ft 7s 6s 2 4 mph 1010.8mb 80f 82f
4:50pm 3ft 7s 6s 4 7 mph 1011.1mb 80f 81f
3:50pm 2.5ft 7s 6s 7
mph
1011.5mb 80f 81f
2:50pm 2.5ft 7s 5s 9 11 mph 1012.3mb 80f 80f
1:50pm 2.5ft 6s 5s 7 9 mph 1012.8mb 80f 80f
12:50pm 2.5ft 7s 5s 9
mph
1013mb 80f 79f
11:50am 3ft 7s 5s 13
mph
1013.1mb 80f 79f
10:50am 3.5ft 7s 5s 11 13 mph 1013.2mb 79f 78f
9:50am 3ft 7s 5s 11 16 mph 1013mb 79f 78f
8:50am 3.5ft 6s 5s 13 16 mph 1012.9mb 79f 79f
7:50am 3.5ft 7s 5s 16 18 mph 1012.3mb 79f 79f
6:50am 3.5ft 6s 5s 20 22 mph 1011.6mb 79f 78f
5:50am 3.5ft 6s 5s 16 18 mph 1011.2mb 79f 78f
4:50am 3.5ft 6s 5s 7 9 mph 1011.7mb 79f 78f
3:50am 3ft 6s 5s 7 9 mph 1011.8mb 79f 78f
2:50am 2.5ft 6s 5s 7
mph
1011.6mb 79f 79f
1:50am 2.5ft 8s 5s 7 9 mph 1011.6mb 80f 79f
12:50am 2.5ft 10s 5s 9
mph
1012.2mb 80f 79f
Thu 07/30 11:50pm 2.5ft 10s 5s 7 9 mph 1012.2mb 80f 80f
10:50pm 2.5ft 10s 5s 11 13 mph 1012.1mb 80f 79f
9:50pm 2.5ft 8s 4s 13 16 mph 1012.1mb 80f 80f
8:50pm 2.5ft 10s 4s 13 16 mph 1011.6mb 80f 80f
7:50pm 3ft 9s 4s 13 18 mph 1011mb 80f 80f
6:50pm 3ft 9s 4s 16 18 mph 1010.8mb 80f 80f
5:50pm 3ft 10s 4s 16 18 mph 1011.4mb 80f 80f
4:50pm 3ft 10s 4s 18 20 mph 1011.5mb 80f 80f
3:50pm 3ft 9s 4s 16 18 mph 1012mb 79f 80f
2:50pm 3ft 10s 4s 18 20 mph 1012.7mb 79f 80f
1:50pm 3ft 8s 4s 18 20 mph 1013.5mb 79f 79f
12:50pm 3ft 9s 4s 16 18 mph 1014mb 79f 79f
11:50am 3ft 10s 5s 16 18 mph 1014.4mb 79f 79f
10:50am 3ft 10s 5s 16 18 mph 1014.6mb 79f 79f
9:50am 2.5ft 10s 5s 16
mph
1014.3mb 79f 79f
8:50am 2.5ft 10s 5s 16 18 mph 1014.4mb 79f 79f
7:50am 3ft 10s 4s 16 18 mph 1014.4mb 78f 79f
6:50am 3ft 4s 4s 16 18 mph 1014.5mb 78f 79f
5:50am 3ft 9s 4s 16 18 mph 1014.3mb 78f 79f
4:50am 3ft 4s 4s 16 18 mph 1014.3mb 78f 79f
3:50am 3.5ft 9s 4s 16 20 mph 1014.4mb 78f 79f
2:50am 3ft 4s 4s 16 20 mph 1014.8mb 78f 79f
1:50am 3ft 10s 4s 18 22 mph 1015.1mb 79f 79f